Time;durP1;ratioP1;P1;durP2;ratioP2;P2;SDS_P1;SDS_P2;PMS_P1;PMS_P2;Temp;Humidity;BMP_temperature;BMP_pressure;BME280_temperature;BME280_humidity;BME280_pressure;Samples;Min_cycle;Max_cycle;Signal;HPM_P1;HPM_P2
2023/02/10 00:01:56;;;;;;;51.20;25.23;;;;;;;2.18;66.40;102247.38;10212437;29;20511;-76
2023/02/10 00:06:59;;;;;;;47.38;22.92;;;;;;;2.06;66.67;102254.66;10232701;29;20085;-76
2023/02/10 00:12:02;;;;;;;43.55;21.90;;;;;;;2.11;66.32;102247.47;10210724;29;20094;-75
2023/02/10 00:17:06;;;;;;;49.38;23.33;;;;;;;1.82;67.75;102253.25;10212658;29;20115;-76
2023/02/10 00:22:09;;;;;;;47.83;24.70;;;;;;;2.23;66.60;102257.03;10211387;29;20123;-76
2023/02/10 00:27:11;;;;;;;50.92;24.85;;;;;;;2.24;66.43;102254.34;10223855;29;20051;-76
2023/02/10 00:32:17;;;;;;;49.35;23.77;;;;;;;2.23;66.53;102254.38;10221458;29;20138;-76
2023/02/10 00:37:19;;;;;;;50.50;25.38;;;;;;;2.23;66.98;102262.34;10213299;29;20139;-76
2023/02/10 00:42:22;;;;;;;56.05;23.60;;;;;;;2.22;67.01;102256.13;10216390;29;20052;-77
2023/02/10 00:47:26;;;;;;;49.67;21.98;;;;;;;2.06;68.20;102255.53;10225351;29;20069;-76
2023/02/10 00:52:29;;;;;;;50.35;25.92;;;;;;;2.05;68.37;102268.78;10233085;29;20039;-76
2023/02/10 00:57:32;;;;;;;54.85;28.98;;;;;;;2.16;68.83;102282.75;10223491;28;20079;-76
2023/02/10 01:02:36;;;;;;;53.15;26.42;;;;;;;2.10;68.51;102288.16;10228891;29;20514;-76
2023/02/10 01:07:39;;;;;;;54.13;27.75;;;;;;;2.33;68.31;102288.69;10236672;29;20054;-77
2023/02/10 01:12:42;;;;;;;58.97;28.27;;;;;;;2.43;68.23;102277.91;10226414;29;20079;-74
2023/02/10 01:17:46;;;;;;;55.83;26.92;;;;;;;2.27;69.40;102270.19;10218511;29;20147;-77
2023/02/10 01:22:49;;;;;;;51.30;25.40;;;;;;;2.39;68.72;102271.78;10211448;29;20043;-76
2023/02/10 01:27:52;;;;;;;53.03;24.30;;;;;;;2.62;68.15;102282.03;10215758;29;20086;-77
2023/02/10 01:32:56;;;;;;;49.30;25.65;;;;;;;2.56;68.35;102288.31;10225521;29;20086;-77
2023/02/10 01:37:59;;;;;;;56.45;26.10;;;;;;;2.56;68.79;102288.31;10234702;29;20485;-76
2023/02/10 01:43:02;;;;;;;58.00;25.83;;;;;;;2.67;68.65;102282.84;10243885;28;20078;-76
2023/02/10 01:48:09;;;;;;;52.55;26.45;;;;;;;2.69;68.54;102278.38;10226895;29;20118;-76
2023/02/10 01:53:15;;;;;;;53.53;25.98;;;;;;;2.57;68.99;102271.50;10225951;29;20406;-75
2023/02/10 01:58:22;;;;;;;55.88;26.50;;;;;;;2.57;69.63;102275.94;10240524;29;20060;-76
2023/02/10 02:03:27;;;;;;;56.10;26.45;;;;;;;2.57;69.36;102286.53;10224944;29;20078;-75
2023/02/10 02:08:31;;;;;;;53.85;25.33;;;;;;;2.56;69.10;102287.47;10237826;29;20051;-75
2023/02/10 02:13:54;;;;;;;57.03;26.08;;;;;;;2.38;69.59;102286.81;10244701;29;20062;-75
2023/02/10 02:19:10;;;;;;;54.53;26.33;;;;;;;2.16;70.64;102277.47;10237057;29;20055;-75
2023/02/10 02:24:43;;;;;;;50.92;26.58;;;;;;;2.15;70.88;102288.97;10226498;29;20073;-76
2023/02/10 02:30:27;;;;;;;53.78;25.83;;;;;;;2.09;71.15;102289.09;10250733;28;20179;-75
2023/02/10 02:35:37;;;;;;;57.97;27.88;;;;;;;2.00;71.76;102282.13;10218911;29;20062;-75
2023/02/10 02:40:40;;;;;;;56.15;26.75;;;;;;;2.00;71.69;102283.91;10237033;29;20136;-75
2023/02/10 02:45:51;;;;;;;57.03;26.80;;;;;;;1.97;72.13;102286.59;10226187;29;20044;-75
2023/02/10 02:51:05;;;;;;;61.53;27.88;;;;;;;1.91;72.02;102285.78;10217511;29;20055;-75
2023/02/10 02:56:19;;;;;;;54.60;25.13;;;;;;;1.85;72.46;102291.19;10219198;29;20048;-75
2023/02/10 03:01:31;;;;;;;55.72;25.80;;;;;;;1.86;72.49;102286.75;10228293;29;20061;-76
2023/02/10 03:06:35;;;;;;;58.05;26.13;;;;;;;1.76;73.31;102285.16;10227512;29;20044;-76
2023/02/10 03:11:38;;;;;;;57.08;26.92;;;;;;;1.66;73.69;102279.97;10233695;29;20472;-75
2023/02/10 03:16:41;;;;;;;53.05;21.02;;;;;;;1.62;74.50;102275.63;10216331;29;20053;-76
2023/02/10 03:21:46;;;;;;;55.03;25.08;;;;;;;1.56;74.52;102262.44;10225226;29;20039;-76
2023/02/10 03:26:49;;;;;;;67.75;25.98;;;;;;;1.37;75.77;102266.22;10233670;28;20043;-76
2023/02/10 03:31:52;;;;;;;61.63;27.85;;;;;;;1.22;76.94;102265.50;10242972;29;20067;-76
2023/02/10 03:36:56;;;;;;;64.70;27.88;;;;;;;1.26;77.24;102272.53;10237018;28;20056;-76
2023/02/10 03:41:59;;;;;;;71.80;31.20;;;;;;;1.45;77.57;102280.22;10221622;29;20123;-76
2023/02/10 03:47:02;;;;;;;63.90;24.48;;;;;;;1.60;76.60;102273.88;10228870;29;20479;-76
2023/02/10 03:52:06;;;;;;;63.05;28.00;;;;;;;1.85;76.25;102279.72;10238571;29;20384;-76
2023/02/10 03:57:09;;;;;;;69.82;29.17;;;;;;;1.71;77.53;102291.38;10247260;28;20090;-76
2023/02/10 04:02:12;;;;;;;61.33;28.63;;;;;;;1.73;77.09;102286.94;10247229;28;20070;-76
2023/02/10 04:07:16;;;;;;;67.38;29.45;;;;;;;1.78;77.35;102272.72;10238334;28;20083;-76
2023/02/10 04:12:19;;;;;;;71.00;32.65;;;;;;;1.80;77.89;102285.06;10233693;28;20036;-76
2023/02/10 04:17:22;;;;;;;78.65;33.03;;;;;;;1.94;76.93;102285.72;10238386;28;20499;-75
2023/02/10 04:22:26;;;;;;;67.43;29.00;;;;;;;1.81;77.77;102299.19;10216274;29;20095;-76
2023/02/10 04:27:29;;;;;;;72.63;34.03;;;;;;;1.79;78.53;102287.75;10236230;28;20051;-75
2023/02/10 04:32:32;;;;;;;74.85;30.88;;;;;;;1.79;78.44;102288.63;10210860;29;20047;-76
2023/02/10 04:37:36;;;;;;;79.60;35.13;;;;;;;1.93;78.81;102281.34;10228009;29;20047;-77
2023/02/10 04:42:39;;;;;;;71.90;33.22;;;;;;;2.01;78.58;102291.84;10213689;29;20134;-76
2023/02/10 04:47:42;;;;;;;82.18;33.42;;;;;;;2.16;77.57;102285.41;10216011;29;20047;-76
2023/02/10 04:52:46;;;;;;;79.97;34.92;;;;;;;2.08;78.53;102295.25;10224290;29;20526;-76
2023/02/10 04:57:49;;;;;;;85.28;36.08;;;;;;;2.06;78.64;102291.78;10233594;29;20050;-75
2023/02/10 05:02:52;;;;;;;87.82;38.00;;;;;;;2.06;78.75;102295.31;10243100;28;20087;-77
2023/02/10 05:07:56;;;;;;;86.65;37.03;;;;;;;2.01;78.77;102296.28;10246584;28;20074;-76
2023/02/10 05:12:59;;;;;;;78.03;35.45;;;;;;;2.13;78.48;102286.34;10219804;29;20075;-76
2023/02/10 05:18:01;;;;;;;81.60;36.30;;;;;;;1.67;79.46;102288.78;10229427;29;20074;-76
2023/02/10 05:23:06;;;;;;;87.18;35.58;;;;;;;1.84;78.76;102300.03;10239003;28;20040;-76
2023/02/10 05:28:09;;;;;;;82.25;37.38;;;;;;;1.60;80.00;102311.84;10245891;28;20051;-76
2023/02/10 05:33:11;;;;;;;76.43;37.83;;;;;;;1.71;80.31;102324.94;10242094;28;20116;-76
2023/02/10 05:38:16;;;;;;;79.82;36.42;;;;;;;1.74;79.93;102330.22;10233016;28;20082;-76
2023/02/10 05:43:18;;;;;;;78.30;34.38;;;;;;;1.85;79.03;102335.38;10228839;28;20047;-76
2023/02/10 05:48:22;;;;;;;88.18;37.38;;;;;;;1.90;79.27;102330.88;10217742;29;20051;-75
2023/02/10 05:53:27;;;;;;;91.93;42.10;;;;;;;1.21;82.60;102343.22;10240393;29;20047;-76
2023/02/10 05:58:32;;;;;;;97.22;44.80;;;;;;;1.75;81.07;102337.25;10243810;28;20455;-76
2023/02/10 06:03:35;;;;;;;107.63;41.45;;;;;;;1.73;81.05;102352.31;10236592;29;20032;-75
2023/02/10 06:08:39;;;;;;;96.20;36.33;;;;;;;1.66;81.84;102359.44;10216956;29;20043;-76
2023/02/10 06:13:42;;;;;;;70.35;27.85;;;;;;;1.61;81.33;102361.28;10229871;29;20407;-75
2023/02/10 06:18:47;;;;;;;93.80;39.28;;;;;;;1.78;80.93;102360.19;10247124;29;20118;-77
2023/02/10 06:23:51;;;;;;;99.88;38.28;;;;;;;1.36;82.96;102375.72;10238062;28;20043;-76
2023/02/10 06:28:54;;;;;;;88.45;32.97;;;;;;;1.27;82.68;102385.50;10230783;29;20109;-75
2023/02/10 06:33:57;;;;;;;72.72;29.63;;;;;;;1.32;82.54;102395.16;10219835;29;20044;-76
2023/02/10 06:39:01;;;;;;;60.78;25.42;;;;;;;1.45;81.41;102391.47;10221553;29;20055;-76
2023/02/10 06:44:04;;;;;;;82.20;32.15;;;;;;;1.24;82.28;102395.25;10229765;29;20047;-76
2023/02/10 06:49:07;;;;;;;95.43;40.25;;;;;;;1.48;81.13;102402.94;10237658;29;20139;-76
2023/02/10 06:54:11;;;;;;;86.70;37.28;;;;;;;1.34;81.46;102409.25;10214416;29;20550;-76
2023/02/10 06:59:14;;;;;;;87.13;35.17;;;;;;;1.32;81.60;102409.28;10226852;29;20921;-76
2023/02/10 07:04:16;;;;;;;74.38;30.73;;;;;;;1.03;83.32;102407.78;10232832;29;20102;-76
2023/02/10 07:09:21;;;;;;;103.35;44.13;;;;;;;1.23;82.56;102401.44;10238043;29;20062;-76
2023/02/10 07:14:23;;;;;;;90.65;35.00;;;;;;;1.32;82.53;102396.06;10243110;29;20498;-76
2023/02/10 07:19:27;;;;;;;78.32;29.08;;;;;;;1.22;83.03;102402.31;10251943;28;20055;-76
2023/02/10 07:24:31;;;;;;;116.35;40.63;;;;;;;1.02;85.18;102419.28;10240740;28;20525;-75
2023/02/10 07:29:34;;;;;;;58.15;23.88;;;;;;;1.12;84.98;102406.81;10214425;29;20079;-75
2023/02/10 07:34:37;;;;;;;98.65;36.45;;;;;;;1.25;84.77;102397.00;10231716;29;20086;-76
2023/02/10 07:39:41;;;;;;;106.10;39.17;;;;;;;1.24;83.69;102400.56;10232995;28;20110;-77
2023/02/10 07:50:17;;;;;;;106.75;39.95;;;;;;;1.75;82.10;102405.28;11139666;23;20051;-80
2023/02/10 07:55:21;;;;;;;102.43;39.45;;;;;;;1.89;80.34;102396.28;10263986;29;20486;-80
2023/02/10 08:00:24;;;;;;;78.03;32.53;;;;;;;1.64;81.86;102400.97;10265396;28;20092;-78
2023/02/10 08:05:28;;;;;;;102.45;37.38;;;;;;;1.82;81.48;102412.28;10254868;28;20050;-79
2023/02/10 08:10:32;;;;;;;111.40;42.50;;;;;;;1.89;81.16;102424.53;10235126;29;20051;-79
2023/02/10 08:15:35;;;;;;;113.32;42.55;;;;;;;1.86;80.82;102420.16;10248265;28;20082;-81
2023/02/10 08:20:40;;;;;;;85.80;37.55;;;;;;;1.74;80.32;102422.97;10247751;29;20046;-80
2023/02/10 08:25:44;;;;;;;112.95;44.67;;;;;;;1.79;81.04;102430.88;10256261;29;20466;-81
2023/02/10 08:30:47;;;;;;;85.45;28.35;;;;;;;1.33;82.95;102445.47;10280335;29;20107;-81
2023/02/10 08:35:50;;;;;;;87.47;34.65;;;;;;;1.10;83.67;102451.00;10266815;28;20043;-81
2023/02/10 08:40:58;;;;;;;107.03;44.38;;;;;;;1.52;83.26;102456.75;10262019;28;20055;-79
2023/02/10 08:46:02;;;;;;;71.43;26.80;;;;;;;1.79;81.62;102450.28;10262093;28;20073;-80
2023/02/10 08:51:10;;;;;;;112.55;46.05;;;;;;;2.20;80.81;102461.28;10253348;29;20491;-80
2023/02/10 08:56:17;;;;;;;121.55;46.72;;;;;;;2.20;80.58;102456.00;10252802;29;20047;-81
2023/02/10 09:01:22;;;;;;;111.55;43.35;;;;;;;2.05;80.57;102446.44;10248198;28;20035;-79
2023/02/10 09:06:31;;;;;;;105.07;39.70;;;;;;;1.89;80.84;102456.34;10260937;28;20039;-80
2023/02/10 09:11:35;;;;;;;112.57;43.22;;;;;;;2.24;80.22;102450.59;10246052;28;20039;-79
2023/02/10 09:16:38;;;;;;;118.65;47.15;;;;;;;2.46;79.22;102450.31;10252214;28;20074;-80
2023/02/10 09:21:41;;;;;;;105.43;41.95;;;;;;;2.16;79.84;102455.13;10259694;28;20395;-79
2023/02/10 09:26:50;;;;;;;101.78;42.45;;;;;;;1.81;80.59;102461.75;10257858;29;20039;-80
2023/02/10 09:31:53;;;;;;;92.35;38.00;;;;;;;1.92;80.24;102467.81;10259317;29;20043;-80
2023/02/10 09:36:58;;;;;;;108.82;41.22;;;;;;;2.08;80.49;102468.47;10249490;29;20119;-81
2023/02/10 09:42:10;;;;;;;101.15;39.97;;;;;;;2.04;80.66;102464.13;10252272;28;20032;-79
2023/02/10 09:47:41;;;;;;;110.50;39.92;;;;;;;2.14;79.37;102463.13;10252997;28;20087;-80
2023/02/10 09:52:58;;;;;;;103.55;41.95;;;;;;;2.36;78.50;102468.16;10249991;29;20390;-79
2023/02/10 09:58:13;;;;;;;94.88;35.88;;;;;;;1.91;79.79;102489.03;10268840;28;20051;-79
2023/02/10 10:03:19;;;;;;;74.68;26.98;;;;;;;1.89;78.65;102494.34;10258251;29;20402;-80
2023/02/10 10:08:28;;;;;;;102.10;42.75;;;;;;;2.56;77.39;102492.66;10237696;28;20055;-79
2023/02/10 10:13:32;;;;;;;92.60;37.95;;;;;;;2.38;76.31;102484.91;10284776;28;20050;-82
2023/02/10 10:18:41;;;;;;;71.35;31.88;;;;;;;2.55;76.95;102479.38;10255019;29;20052;-81
2023/02/10 10:23:57;;;;;;;74.60;31.55;;;;;;;2.52;76.20;102482.06;10264326;29;20035;-81
2023/02/10 10:29:19;;;;;;;97.60;36.47;;;;;;;2.59;75.96;102486.41;10263398;28;20103;-78
2023/02/10 10:34:26;;;;;;;79.23;34.17;;;;;;;2.92;75.34;102490.34;10256794;28;20036;-80
2023/02/10 10:39:34;;;;;;;81.38;34.63;;;;;;;3.31;74.38;102495.03;10265943;29;20055;-79
2023/02/10 10:44:40;;;;;;;84.38;39.70;;;;;;;3.43;73.82;102498.38;10287873;29;20039;-81
2023/02/10 10:49:43;;;;;;;99.03;43.97;;;;;;;3.30;74.49;102483.53;10273851;28;20074;-80
2023/02/10 10:54:46;;;;;;;90.57;40.33;;;;;;;3.35;74.85;102476.38;10270648;28;20036;-81
2023/02/10 10:59:55;;;;;;;85.30;39.22;;;;;;;3.43;73.85;102474.44;10259999;29;20146;-81
2023/02/10 11:05:02;;;;;;;83.35;35.28;;;;;;;3.61;72.79;102467.91;10257773;29;20047;-80
2023/02/10 11:10:06;;;;;;;65.05;29.90;;;;;;;3.19;74.75;102472.22;10263598;29;20050;-81
2023/02/10 11:15:30;;;;;;;86.18;36.15;;;;;;;3.53;73.18;102453.00;10270900;29;20039;-79
2023/02/10 11:20:35;;;;;;;73.53;35.40;;;;;;;3.53;73.43;102445.03;10264370;29;20113;-81
2023/02/10 11:25:38;;;;;;;78.07;35.63;;;;;;;4.25;71.26;102451.53;10267158;28;20051;-81
2023/02/10 11:30:43;;;;;;;80.65;36.85;;;;;;;4.53;69.50;102436.72;10261252;29;20094;-80
2023/02/10 11:35:49;;;;;;;71.32;33.42;;;;;;;4.99;68.53;102427.69;10264801;29;20513;-82
2023/02/10 11:40:54;;;;;;;64.03;33.33;;;;;;;5.25;68.31;102424.31;10257017;28;20571;-81
2023/02/10 11:46:00;;;;;;;53.42;23.08;;;;;;;5.61;64.83;102428.72;10252866;28;20039;-79
2023/02/10 11:51:07;;;;;;;60.10;28.80;;;;;;;6.03;63.95;102415.91;10265121;28;20529;-80
2023/02/10 11:56:19;;;;;;;58.90;26.65;;;;;;;7.44;58.77;102399.78;10251965;28;20046;-81
2023/02/10 12:01:32;;;;;;;61.65;26.73;;;;;;;7.59;58.04;102409.91;10258666;29;20043;-81
2023/02/10 12:06:39;;;;;;;52.13;24.75;;;;;;;7.74;56.22;102403.16;10246861;28;20047;-80
2023/02/10 12:11:52;;;;;;;49.67;21.50;;;;;;;7.75;56.45;102399.53;10254073;28;20194;-81
2023/02/10 12:17:06;;;;;;;33.75;16.75;;;;;;;7.14;56.96;102404.41;10245568;29;20043;-80
2023/02/10 12:22:19;;;;;;;48.40;22.02;;;;;;;7.55;57.21;102386.91;10246838;29;20086;-79
2023/02/10 12:27:28;;;;;;;45.03;24.50;;;;;;;6.73;57.00;102383.47;10256928;28;20043;-80
2023/02/10 12:32:45;;;;;;;47.22;20.33;;;;;;;6.45;58.36;102379.97;10255076;28;20502;-79
2023/02/10 12:38:00;;;;;;;35.85;17.00;;;;;;;5.44;60.65;102389.19;10244675;29;20066;-79
2023/02/10 12:43:16;;;;;;;44.78;21.70;;;;;;;6.69;58.50;102372.94;10252175;28;20059;-81
2023/02/10 12:48:30;;;;;;;36.92;18.42;;;;;;;7.19;55.82;102351.66;10255379;29;20051;-81
2023/02/10 12:53:38;;;;;;;37.95;20.27;;;;;;;6.66;55.02;102349.88;10253774;28;20071;-80
2023/02/10 12:58:44;;;;;;;28.88;15.75;;;;;;;7.03;55.87;102348.66;10255963;29;20047;-80
2023/02/10 13:03:51;;;;;;;36.80;16.33;;;;;;;7.00;56.16;102338.06;10284709;29;20043;-81
2023/02/10 13:08:59;;;;;;;35.55;16.88;;;;;;;6.17;56.26;102349.69;10287856;29;20059;-79
2023/02/10 13:14:10;;;;;;;45.78;23.60;;;;;;;6.50;56.61;102332.59;10295498;28;20051;-77
2023/02/10 13:19:27;;;;;;;41.60;19.77;;;;;;;6.28;56.72;102330.66;10283299;28;20067;-77
2023/02/10 13:24:41;;;;;;;37.75;20.73;;;;;;;6.37;56.16;102329.47;10284546;28;20054;-81
2023/02/10 13:29:51;;;;;;;43.50;19.90;;;;;;;6.98;54.93;102339.91;10275170;28;20058;-80
2023/02/10 13:34:58;;;;;;;31.35;14.73;;;;;;;6.42;55.54;102323.97;10270677;28;20494;-80
2023/02/10 13:40:03;;;;;;;36.25;17.67;;;;;;;6.44;56.39;102316.78;10264734;29;20054;-81
2023/02/10 13:45:16;;;;;;;34.58;17.45;;;;;;;7.09;55.01;102307.47;10266097;28;20050;-80
2023/02/10 13:50:25;;;;;;;38.30;19.77;;;;;;;7.11;54.07;102302.97;10261771;29;20059;-80
2023/02/10 13:55:39;;;;;;;;;;;;;;;6.61;54.93;102285.94;10260783;28;20427;-80
2023/02/10 14:00:46;;;;;;;38.28;19.60;;;;;;;6.02;57.10;102301.25;10229298;28;20365;-81
2023/02/10 14:05:57;;;;;;;31.08;14.45;;;;;;;5.85;57.78;102307.97;10267722;28;20047;-79
2023/02/10 14:11:02;;;;;;;33.63;15.23;;;;;;;5.70;58.24;102297.75;10267459;29;20043;-79
2023/02/10 14:16:08;;;;;;;40.08;20.77;;;;;;;6.02;57.68;102303.91;10270445;29;20043;-79
2023/02/10 14:21:15;;;;;;;36.25;18.23;;;;;;;5.68;58.08;102291.63;10251823;29;20754;-79
2023/02/10 14:26:26;;;;;;;40.15;18.45;;;;;;;5.45;59.16;102289.63;10268646;28;20447;-79
2023/02/10 14:31:32;;;;;;;39.50;19.85;;;;;;;5.92;58.77;102277.53;10263183;29;20047;-80
2023/02/10 14:36:37;;;;;;;37.17;17.75;;;;;;;6.00;57.95;102277.28;10266105;28;20043;-81
2023/02/10 14:41:40;;;;;;;39.67;20.25;;;;;;;6.06;58.15;102274.44;10265940;28;20055;-79
2023/02/10 14:46:48;;;;;;;39.42;19.40;;;;;;;6.20;57.49;102257.97;10262406;29;20502;-80
2023/02/10 14:51:53;;;;;;;40.22;17.33;;;;;;;5.49;58.03;102261.97;10267296;28;20061;-79
2023/02/10 14:56:57;;;;;;;30.42;16.23;;;;;;;5.01;58.87;102273.97;10264864;29;20051;-79
2023/02/10 15:02:04;;;;;;;33.28;15.45;;;;;;;5.16;58.84;102271.84;10265931;28;20055;-78
2023/02/10 15:07:24;;;;;;;30.13;15.13;;;;;;;5.56;57.81;102262.66;10265797;28;20046;-80
2023/02/10 15:12:27;;;;;;;38.33;17.75;;;;;;;5.04;59.24;102244.59;10266135;28;20043;-79
2023/02/10 15:17:37;;;;;;;30.70;14.68;;;;;;;5.52;57.86;102253.00;10265698;29;20043;-81
2023/02/10 15:22:44;;;;;;;40.22;20.48;;;;;;;4.77;59.44;102240.00;10280193;29;20075;-77
2023/02/10 15:27:47;;;;;;;43.15;20.08;;;;;;;5.39;58.66;102247.16;10291441;28;20044;-79
2023/02/10 15:32:51;;;;;;;43.38;21.00;;;;;;;5.10;59.30;102248.91;10272754;28;20094;-79
2023/02/10 15:37:58;;;;;;;35.17;15.85;;;;;;;4.62;61.36;102247.50;10269280;28;20090;-80
2023/02/10 15:43:06;;;;;;;38.50;19.10;;;;;;;5.10;58.98;102248.91;10268378;29;20209;-80
2023/02/10 15:48:09;;;;;;;33.30;16.40;;;;;;;4.96;59.47;102241.22;10267674;29;20051;-79
2023/02/10 15:53:20;;;;;;;35.13;17.73;;;;;;;4.95;60.05;102241.28;10266607;28;20493;-80
2023/02/10 15:58:23;;;;;;;50.42;22.17;;;;;;;4.67;60.03;102238.53;10262623;29;20051;-79
2023/02/10 16:03:26;;;;;;;46.33;20.25;;;;;;;4.78;60.61;102244.44;10265182;28;20631;-79
2023/02/10 16:08:31;;;;;;;50.83;24.27;;;;;;;4.85;60.53;102230.00;10264746;29;20063;-80
2023/02/10 16:13:34;;;;;;;49.72;22.85;;;;;;;4.83;60.20;102235.41;10267079;28;20036;-81
2023/02/10 16:18:37;;;;;;;52.28;23.33;;;;;;;4.76;60.81;102230.28;10265753;28;20055;-79
2023/02/10 16:23:41;;;;;;;50.15;22.63;;;;;;;4.53;61.41;102230.91;10264223;29;20115;-79
2023/02/10 16:28:44;;;;;;;52.67;22.50;;;;;;;4.40;61.86;102230.34;10266726;28;20041;-79
2023/02/10 16:33:49;;;;;;;43.42;19.02;;;;;;;3.99;62.58;102228.72;10279253;29;20406;-80
2023/02/10 16:38:53;;;;;;;50.50;24.60;;;;;;;4.40;62.15;102225.03;10268058;28;20053;-81
2023/02/10 16:43:56;;;;;;;47.53;25.65;;;;;;;4.49;61.76;102227.44;10266151;28;20446;-78
2023/02/10 16:48:59;;;;;;;50.80;23.88;;;;;;;4.52;61.16;102222.03;10265222;29;20055;-80
2023/02/10 16:54:08;;;;;;;46.72;22.67;;;;;;;4.45;61.95;102222.25;10264245;29;20482;-81
2023/02/10 16:59:15;;;;;;;52.00;24.50;;;;;;;4.32;62.80;102225.22;10263763;28;20047;-79
2023/02/10 17:04:17;;;;;;;53.83;21.42;;;;;;;4.18;63.25;102228.22;10258418;29;20066;-79
2023/02/10 17:09:23;;;;;;;50.97;23.73;;;;;;;4.19;63.49;102213.13;10263484;28;20521;-79
2023/02/10 17:14:26;;;;;;;48.70;21.63;;;;;;;3.95;64.00;102212.84;10263177;28;20470;-78
2023/02/10 17:19:31;;;;;;;48.45;22.88;;;;;;;4.08;63.40;102210.72;10260452;29;20486;-80
2023/02/10 17:24:36;;;;;;;50.03;23.95;;;;;;;4.08;63.38;102204.53;10267917;28;20514;-79
2023/02/10 17:29:39;;;;;;;46.10;22.67;;;;;;;3.93;63.75;102201.34;10264758;29;20106;-79
2023/02/10 17:34:42;;;;;;;48.55;22.63;;;;;;;3.97;63.35;102185.31;10257927;29;20126;-79
2023/02/10 17:39:48;;;;;;;45.50;22.17;;;;;;;3.85;63.56;102183.84;10269245;28;20047;-79
2023/02/10 17:44:51;;;;;;;49.33;23.42;;;;;;;4.13;62.77;102194.66;10299640;28;20486;-78
2023/02/10 17:49:54;;;;;;;49.45;22.02;;;;;;;4.24;62.21;102197.91;10273571;28;20054;-79
2023/02/10 17:54:58;;;;;;;47.10;21.55;;;;;;;4.08;62.73;102210.72;10272283;28;20031;-79
2023/02/10 18:00:14;;;;;;;38.90;19.52;;;;;;;3.90;63.28;102206.75;10269184;29;20522;-79
2023/02/10 18:05:17;;;;;;;48.75;22.17;;;;;;;4.23;62.56;102213.94;10275140;29;20051;-78
2023/02/10 18:10:21;;;;;;;49.22;21.10;;;;;;;4.04;63.10;102230.34;10300199;28;20078;-79
2023/02/10 18:15:24;;;;;;;39.15;19.45;;;;;;;4.06;63.15;102207.25;10273106;29;20043;-79
2023/02/10 18:20:27;;;;;;;54.15;21.90;;;;;;;4.08;63.47;102208.06;10263625;28;20043;-79
2023/02/10 18:25:32;;;;;;;54.45;24.05;;;;;;;4.12;63.19;102193.81;10264208;28;20106;-78
2023/02/10 18:30:34;;;;;;;55.75;23.42;;;;;;;4.00;63.88;102185.25;10262539;28;20507;-79
2023/02/10 18:35:38;;;;;;;54.30;23.95;;;;;;;4.13;63.68;102189.34;10257051;29;20078;-79
2023/02/10 18:40:44;;;;;;;49.95;25.35;;;;;;;4.27;63.38;102173.03;10262290;28;20075;-79
2023/02/10 18:45:48;;;;;;;51.28;25.48;;;;;;;4.31;62.92;102148.09;10262346;28;20388;-79
2023/02/10 18:50:51;;;;;;;51.63;23.17;;;;;;;4.00;63.89;102151.53;10265230;28;20039;-79
2023/02/10 18:55:57;;;;;;;53.00;25.90;;;;;;;4.35;63.29;102145.28;10276564;28;20503;-79
2023/02/10 19:01:03;;;;;;;57.70;26.50;;;;;;;4.35;63.41;102152.41;10280979;28;20043;-79
2023/02/10 19:06:07;;;;;;;56.42;25.17;;;;;;;4.09;63.93;102177.91;10263734;28;20039;-78
2023/02/10 19:11:13;;;;;;;56.35;27.90;;;;;;;4.27;63.64;102194.31;10271456;28;20035;-77
2023/02/10 19:16:16;;;;;;;49.92;22.17;;;;;;;4.35;63.23;102189.66;10291756;28;20050;-79
2023/02/10 19:21:20;;;;;;;46.97;22.35;;;;;;;4.03;64.22;102195.81;10264876;28;20093;-77
2023/02/10 19:26:24;;;;;;;51.75;23.50;;;;;;;4.02;64.21;102212.69;10265354;28;20054;-79
2023/02/10 19:31:27;;;;;;;56.45;22.30;;;;;;;4.01;64.77;102233.09;10263765;28;20115;-79
2023/02/10 19:36:30;;;;;;;42.70;20.95;;;;;;;4.05;64.56;102240.06;10262184;28;20043;-80
2023/02/10 19:41:34;;;;;;;55.05;27.35;;;;;;;4.21;64.50;102226.41;10262706;28;20094;-79
2023/02/10 19:46:37;;;;;;;40.75;19.83;;;;;;;3.90;65.08;102222.72;10264191;28;20499;-79
2023/02/10 19:51:41;;;;;;;55.75;26.60;;;;;;;3.99;65.20;102208.31;10263348;28;20052;-80
2023/02/10 19:56:45;;;;;;;44.42;22.58;;;;;;;3.81;66.00;102206.09;10263163;28;20050;-80
2023/02/10 20:01:48;;;;;;;50.00;22.50;;;;;;;3.75;66.24;102200.91;10267552;23;20043;-80
2023/02/10 20:06:51;;;;;;;51.38;21.75;;;;;;;3.78;66.25;102179.56;10240946;29;20066;-81
2023/02/10 20:11:56;;;;;;;44.53;21.20;;;;;;;3.76;66.78;102184.94;10235826;29;20048;-80
2023/02/10 20:16:58;;;;;;;49.92;24.83;;;;;;;3.79;66.47;102181.34;10167881;29;20068;-81
2023/02/10 20:22:01;;;;;;;53.45;26.60;;;;;;;3.66;67.32;102156.84;10171704;29;20436;-81
2023/02/10 20:27:05;;;;;;;48.63;23.90;;;;;;;3.75;67.02;102172.56;10155644;29;20056;-80
2023/02/10 20:32:08;;;;;;;48.90;22.75;;;;;;;3.90;66.50;102174.84;10160184;29;20069;-79
2023/02/10 20:37:11;;;;;;;50.60;26.50;;;;;;;3.92;66.42;102182.78;10150167;29;20044;-80
2023/02/10 20:42:16;;;;;;;56.17;25.25;;;;;;;4.23;65.57;102171.38;10148929;29;20112;-79
2023/02/10 20:47:18;;;;;;;60.65;28.33;;;;;;;4.16;65.92;102168.84;10165789;29;20060;-79
2023/02/10 20:52:23;;;;;;;44.20;22.95;;;;;;;3.95;66.58;102174.75;10176771;29;20062;-81
2023/02/10 20:57:27;;;;;;;52.20;23.25;;;;;;;3.99;66.50;102172.88;10167258;29;20053;-80
2023/02/10 21:02:30;;;;;;;56.53;25.52;;;;;;;3.99;67.00;102172.88;10147609;29;20198;-79
2023/02/10 21:07:32;;;;;;;55.08;26.48;;;;;;;4.14;66.88;102168.03;10148805;29;20078;-78
2023/02/10 21:12:37;;;;;;;49.25;23.10;;;;;;;3.99;67.21;102175.53;10146019;29;20476;-78
2023/02/10 21:17:40;;;;;;;48.35;21.73;;;;;;;3.95;67.43;102164.97;10155064;29;20048;-80
2023/02/10 21:22:42;;;;;;;46.47;25.98;;;;;;;4.14;68.03;102183.09;10159499;29;20096;-79
2023/02/10 21:27:47;;;;;;;44.15;21.60;;;;;;;4.04;68.12;102168.31;10162564;29;20048;-79
2023/02/10 21:32:49;;;;;;;53.42;24.02;;;;;;;4.07;68.19;102168.22;10165233;29;20056;-80
2023/02/10 21:37:52;;;;;;;41.75;19.17;;;;;;;3.73;69.00;102167.28;10155562;29;20048;-79
2023/02/10 21:42:57;;;;;;;43.63;20.02;;;;;;;3.98;68.47;102142.75;10152270;29;20054;-79
2023/02/10 21:47:59;;;;;;;55.47;28.23;;;;;;;4.23;68.32;102139.44;10162555;29;20044;-80
2023/02/10 21:53:02;;;;;;;57.28;26.95;;;;;;;4.07;69.01;102153.16;10174762;29;20055;-79
2023/02/10 21:58:07;;;;;;;50.65;26.65;;;;;;;4.38;68.23;102144.34;10167975;29;20064;-79
2023/02/10 22:03:10;;;;;;;53.90;27.85;;;;;;;4.31;68.61;102138.31;10165912;29;20048;-79
2023/02/10 22:08:12;;;;;;;49.63;17.80;;;;;;;4.10;69.34;102141.56;10177353;29;20531;-79
2023/02/10 22:13:17;;;;;;;57.45;27.30;;;;;;;4.33;69.35;102144.50;10162651;29;20048;-78
2023/02/10 22:18:19;;;;;;;48.17;23.10;;;;;;;4.40;69.05;102135.41;10170989;29;20063;-79
2023/02/10 22:23:22;;;;;;;52.40;26.75;;;;;;;4.30;69.96;102144.53;10148006;29;20053;-81
2023/02/10 22:28:27;;;;;;;60.10;31.48;;;;;;;4.28;70.23;102141.06;10156080;29;20045;-81
2023/02/10 22:33:30;;;;;;;60.33;27.98;;;;;;;4.25;70.65;102150.91;10176629;29;20360;-79
2023/02/10 22:38:34;;;;;;;61.05;28.92;;;;;;;4.44;70.64;102140.63;10182094;29;20484;-79
2023/02/10 22:43:38;;;;;;;61.63;27.58;;;;;;;4.45;71.01;102140.63;10164843;29;20086;-79
2023/02/10 22:48:41;;;;;;;62.70;30.80;;;;;;;4.43;71.31;102142.44;10175783;29;20044;-79
2023/02/10 22:53:44;;;;;;;64.40;32.10;;;;;;;4.51;71.46;102129.78;10181338;29;20048;-79
2023/02/10 22:58:49;;;;;;;47.28;23.52;;;;;;;4.34;71.80;102127.59;10186535;29;20056;-79
2023/02/10 23:03:52;;;;;;;62.30;27.92;;;;;;;4.54;71.64;102116.41;10152732;29;20049;-77
2023/02/10 23:08:55;;;;;;;48.08;22.85;;;;;;;4.34;72.56;102110.75;10151640;29;20052;-79
2023/02/10 23:14:00;;;;;;;68.07;34.40;;;;;;;4.49;73.46;102090.81;10150565;29;20064;-79